Time;durP1;ratioP1;P1;durP2;ratioP2;P2;SDS_P1;SDS_P2;PMS_P1;PMS_P2;Temp;Humidity;BMP_temperature;BMP_pressure;BME280_temperature;BME280_humidity;BME280_pressure;Samples;Min_cycle;Max_cycle;Signal;HPM_P1;HPM_P2
2023/12/25 00:00:50;;;;;;;0.00;0.00;;;;;;;11.29;100.00;99635.41;4808603;29;20035;-77
2023/12/25 00:03:15;;;;;;;0.00;0.00;;;;;;;11.25;100.00;99634.34;4822453;29;20045;-77
2023/12/25 00:05:41;;;;;;;0.00;0.00;;;;;;;11.20;100.00;99623.47;4813904;29;20045;-78
2023/12/25 00:08:08;;;;;;;0.00;0.00;;;;;;;11.32;100.00;99640.28;4805903;29;20471;-79
2023/12/25 00:10:34;;;;;;;0.00;0.00;;;;;;;11.39;100.00;99641.88;4828567;29;20455;-77
2023/12/25 00:13:02;;;;;;;0.00;0.00;;;;;;;11.22;100.00;99617.72;4818947;29;20034;-79
2023/12/25 00:15:27;;;;;;;0.00;0.00;;;;;;;11.32;100.00;99615.66;4823920;29;20030;-80
2023/12/25 00:17:55;;;;;;;0.00;0.00;;;;;;;11.33;100.00;99622.78;4806302;29;20103;-79
2023/12/25 00:20:23;;;;;;;0.00;0.00;;;;;;;11.34;100.00;99621.66;4831085;29;20121;-79
2023/12/25 00:22:49;;;;;;;0.00;0.00;;;;;;;11.31;100.00;99611.28;4820449;29;20046;-80
2023/12/25 00:25:19;;;;;;;0.00;0.00;;;;;;;11.52;100.00;99646.63;4820793;29;20090;-78
2023/12/25 00:27:45;;;;;;;0.00;0.00;;;;;;;11.48;100.00;99640.13;4819587;29;20632;-79
2023/12/25 00:30:11;;;;;;;0.00;0.00;;;;;;;11.47;100.00;99641.25;4820211;29;20026;-80
2023/12/25 00:32:38;;;;;;;0.00;0.00;;;;;;;11.50;100.00;99638.72;4804904;29;20099;-78
2023/12/25 00:35:03;;;;;;;0.00;0.00;;;;;;;11.30;100.00;99615.16;4821316;29;20082;-79
2023/12/25 00:37:29;;;;;;;0.00;0.00;;;;;;;11.32;100.00;99615.66;4811903;29;20037;-79
2023/12/25 00:40:04;;;;;;;0.00;0.00;;;;;;;11.37;100.00;99608.50;4821889;29;20126;-79
2023/12/25 00:42:42;;;;;;;;;;;;;;;;;;;;;
2023/12/25 00:45:11;;;;;;;0.00;0.00;;;;;;;11.24;100.00;99586.19;4808784;29;20369;-79
2023/12/25 00:47:36;;;;;;;0.10;0.10;;;;;;;11.20;100.00;99587.06;4814287;29;20117;-79
2023/12/25 00:50:02;;;;;;;0.00;0.00;;;;;;;11.28;100.00;99606.41;4821932;29;20383;-79
2023/12/25 00:52:28;;;;;;;0.00;0.00;;;;;;;11.41;100.00;99631.47;4829480;29;20050;-78
2023/12/25 00:54:53;;;;;;;0.10;0.10;;;;;;;11.36;100.00;99626.88;4802725;29;20043;-79
2023/12/25 00:57:29;;;;;;;;;;;;;;;;;;;;;
2023/12/25 00:59:54;;;;;;;0.00;0.00;;;;;;;11.20;100.00;99598.84;4814575;29;20023;-77
2023/12/25 01:02:30;;;;;;;;;;;;;;;;;;;;;
2023/12/25 01:05:05;;;;;;;;;;;;;;;;;;;;;
2023/12/25 01:07:40;;;;;;;0.00;0.00;;;;;;;11.33;100.00;99614.56;4809149;29;20031;-78
2023/12/25 01:10:09;;;;;;;0.10;0.10;;;;;;;11.21;100.00;99602.38;4815352;29;20030;-78
2023/12/25 01:12:34;;;;;;;0.00;0.00;;;;;;;11.25;100.00;99615.19;4832632;29;20096;-80
2023/12/25 01:15:12;;;;;;;0.00;0.00;;;;;;;11.30;100.00;99611.56;4839508;29;20034;-78
2023/12/25 01:17:50;;;;;;;;;;;;;;;;;;;;;
2023/12/25 01:20:26;;;;;;;0.00;0.00;;;;;;;11.29;100.00;99604.50;4809831;29;20062;-80
2023/12/25 01:23:08;;;;;;;0.00;0.00;;;;;;;11.37;100.00;99630.41;4813921;29;20083;-79
2023/12/25 01:25:39;;;;;;;0.00;0.00;;;;;;;11.33;100.00;99617.31;4829989;29;20026;-80
2023/12/25 01:28:05;;;;;;;0.00;0.00;;;;;;;11.20;100.00;99590.63;4834451;29;20026;-78
2023/12/25 01:30:32;;;;;;;0.00;0.00;;;;;;;11.20;100.00;99585.16;4827361;29;20367;-78
2023/12/25 01:32:58;;;;;;;0.00;0.00;;;;;;;11.52;100.00;99635.69;4808368;29;20031;-79
2023/12/25 01:35:33;;;;;;;0.00;0.00;;;;;;;11.38;100.00;99612.88;4814373;29;20044;-79
2023/12/25 01:38:03;;;;;;;0.00;0.00;;;;;;;11.20;100.00;99584.31;4818607;29;20031;-79
2023/12/25 01:40:38;;;;;;;0.00;0.00;;;;;;;11.22;100.00;99593.06;4808456;29;20173;-79
2023/12/25 01:43:04;;;;;;;0.00;0.00;;;;;;;11.21;100.00;99586.78;4833869;29;20114;-79
2023/12/25 01:45:29;;;;;;;0.10;0.10;;;;;;;11.47;100.00;99622.06;4829480;29;20121;-80
2023/12/25 01:47:55;;;;;;;0.00;0.00;;;;;;;11.23;100.00;99578.25;4813551;29;20030;-79
2023/12/25 01:50:30;;;;;;;;;;;;;;;;;;;;;
2023/12/25 01:53:25;;;;;;;0.00;0.00;;;;;;;11.19;100.00;99578.03;4816399;29;20046;-81
2023/12/25 01:56:11;;;;;;;0.00;0.00;;;;;;;11.10;100.00;99568.84;4822283;29;20782;-82
2023/12/25 01:58:39;;;;;;;0.00;0.00;;;;;;;11.25;100.00;99598.78;4814726;29;20096;-80
2023/12/25 02:01:04;;;;;;;0.00;0.00;;;;;;;11.27;100.00;99602.03;4823428;29;20090;-80
2023/12/25 02:04:30;;;;;;;0.00;0.00;;;;;;;11.47;100.00;99633.03;4815410;29;20022;-82
2023/12/25 02:07:04;;;;;;;0.00;0.00;;;;;;;11.22;100.00;99593.06;4781979;29;20355;-81
2023/12/25 02:09:32;;;;;;;0.00;0.00;;;;;;;11.45;100.00;99635.25;4786587;29;20494;-83
2023/12/25 02:12:08;;;;;;;;;;;;;;;;;;;;;
2023/12/25 02:15:11;;;;;;;0.00;0.00;;;;;;;11.25;100.00;99595.22;4798457;29;20034;-82
2023/12/25 02:17:39;;;;;;;0.00;0.00;;;;;;;11.18;100.00;99576.41;4832066;29;20039;-84
2023/12/25 02:20:23;;;;;;;0.00;0.00;;;;;;;11.31;100.00;99603.06;4813621;29;20058;-82
2023/12/25 02:22:49;;;;;;;0.00;0.00;;;;;;;11.24;100.00;99597.13;4842329;29;20027;-80
2023/12/25 02:26:34;;;;;;;0.00;0.00;;;;;;;11.55;100.00;99639.78;4838951;29;20065;-79
2023/12/25 02:29:08;;;;;;;0.00;0.00;;;;;;;11.52;100.00;99641.16;4814664;29;20030;-80
2023/12/25 02:31:34;;;;;;;;;;;;;;;11.53;100.00;99642.81;4825506;29;20040;-81
2023/12/25 02:34:02;;;;;;;0.00;0.00;;;;;;;11.30;100.00;99615.16;4827065;29;19956;-81
2023/12/25 02:36:44;;;;;;;0.00;0.00;;;;;;;11.21;100.00;99614.13;4840328;29;20027;-82
2023/12/25 02:39:20;;;;;;;;;;;;;;;;;;;;;
2023/12/25 02:41:45;;;;;;;0.00;0.00;;;;;;;11.26;100.00;99636.00;4819343;29;20022;-79
2023/12/25 02:44:11;;;;;;;0.00;0.00;;;;;;;11.26;100.00;99633.25;4824360;29;20192;-79
2023/12/25 02:46:36;;;;;;;0.00;0.00;;;;;;;11.38;100.00;99662.16;4799654;29;20115;-79
2023/12/25 02:49:02;;;;;;;0.00;0.00;;;;;;;11.34;100.00;99661.91;4791131;29;20031;-79
2023/12/25 02:51:27;;;;;;;0.00;0.00;;;;;;;11.27;100.00;99645.84;4814618;29;20454;-80
2023/12/25 02:54:03;;;;;;;;;;;;;;;;;;;;;
2023/12/25 02:56:28;;;;;;;0.00;0.00;;;;;;;11.16;100.00;99628.69;4814866;29;20389;-80
2023/12/25 02:58:59;;;;;;;0.00;0.00;;;;;;;11.17;100.00;99629.53;4816369;29;20048;-81
2023/12/25 03:01:24;;;;;;;0.00;0.00;;;;;;;11.25;100.00;99648.03;4829689;29;20034;-80
2023/12/25 03:03:50;;;;;;;0.00;0.00;;;;;;;11.18;100.00;99636.59;4816385;29;20030;-80
2023/12/25 03:06:26;;;;;;;0.00;0.00;;;;;;;11.34;100.00;99668.19;4834934;29;20117;-79
2023/12/25 03:08:52;;;;;;;0.00;0.00;;;;;;;11.25;100.00;99655.44;4822473;29;20450;-80
2023/12/25 03:11:17;;;;;;;0.00;0.00;;;;;;;11.34;100.00;99667.38;4801673;29;20107;-79
2023/12/25 03:13:43;;;;;;;0.10;0.10;;;;;;;11.29;100.00;99662.78;4815146;29;20033;-80
2023/12/25 03:16:13;;;;;;;0.00;0.00;;;;;;;11.28;100.00;99657.59;4826058;29;20035;-79
2023/12/25 03:18:38;;;;;;;0.00;0.00;;;;;;;11.34;100.00;99657.22;4825427;29;20497;-77
2023/12/25 03:21:21;;;;;;;;;;;;;;;;;;;;;
2023/12/25 03:23:47;;;;;;;0.00;0.00;;;;;;;11.32;100.00;99653.97;4827592;29;20025;-81
2023/12/25 03:26:13;;;;;;;0.00;0.00;;;;;;;11.23;100.00;99636.56;4832169;29;20121;-79
2023/12/25 03:28:41;;;;;;;0.10;0.10;;;;;;;11.33;100.00;99655.63;4831095;29;20051;-80
2023/12/25 03:31:07;;;;;;;0.00;0.00;;;;;;;11.26;100.00;99637.91;4809453;29;20342;-80
2023/12/25 03:33:33;;;;;;;0.00;0.00;;;;;;;11.13;100.00;99618.31;4816222;29;20432;-80
2023/12/25 03:35:58;;;;;;;0.00;0.00;;;;;;;11.22;100.00;99626.72;4816188;29;20095;-78
2023/12/25 03:38:23;;;;;;;0.00;0.00;;;;;;;11.23;100.00;99639.31;4817064;29;20037;-80
2023/12/25 03:40:50;;;;;;;0.00;0.00;;;;;;;11.25;100.00;99620.66;4822298;29;20087;-82
2023/12/25 03:43:15;;;;;;;0.05;0.05;;;;;;;11.31;100.00;99640.59;4826363;29;20157;-81
2023/12/25 03:45:41;;;;;;;0.00;0.00;;;;;;;11.39;100.00;99644.59;4821780;29;20035;-80
2023/12/25 03:48:24;;;;;;;0.00;0.00;;;;;;;11.08;100.00;99592.94;4822648;29;20490;-81
2023/12/25 03:50:52;;;;;;;0.00;0.00;;;;;;;11.05;100.00;99583.38;4835182;29;20114;-79
2023/12/25 03:53:18;;;;;;;0.00;0.00;;;;;;;11.42;100.00;99642.13;4822255;29;20023;-80
2023/12/25 03:55:48;;;;;;;0.00;0.00;;;;;;;11.43;100.00;99637.44;4830943;29;20057;-79
2023/12/25 03:58:14;;;;;;;0.00;0.00;;;;;;;11.43;100.00;99631.97;4828911;29;20047;-80
2023/12/25 04:00:45;;;;;;;0.00;0.00;;;;;;;11.15;100.00;99577.00;4825717;29;20041;-79
2023/12/25 04:03:13;;;;;;;0.00;0.00;;;;;;;11.34;100.00;99607.97;4829520;29;20681;-80
2023/12/25 04:05:59;;;;;;;0.00;0.00;;;;;;;11.25;100.00;99592.50;4828424;29;20054;-80
2023/12/25 04:08:27;;;;;;;0.00;0.00;;;;;;;11.31;100.00;99597.59;4820804;29;20042;-80
2023/12/25 04:10:52;;;;;;;0.00;0.00;;;;;;;11.23;100.00;99584.56;4817816;29;20159;-80
2023/12/25 04:13:35;;;;;;;;;;;;;;;;;;;;;
2023/12/25 04:16:09;;;;;;;0.00;0.00;;;;;;;11.23;100.00;99587.31;4808947;29;20497;-80
2023/12/25 04:18:42;;;;;;;0.00;0.00;;;;;;;11.14;100.00;99575.34;4799985;29;20486;-79
2023/12/25 04:21:31;;;;;;;0.00;0.00;;;;;;;11.33;100.00;99600.88;4835089;29;20113;-85
2023/12/25 04:23:57;;;;;;;0.00;0.00;;;;;;;11.12;100.00;99556.50;4823801;29;20023;-83
2023/12/25 04:26:36;;;;;;;;;;;;;;;;;;;;;
2023/12/25 04:29:14;;;;;;;;;;;;;;;;;;;;;
2023/12/25 04:31:57;;;;;;;0.00;0.00;;;;;;;11.16;100.00;99573.16;4829420;29;20038;-82
2023/12/25 04:34:28;;;;;;;0.00;0.00;;;;;;;11.20;100.00;99557.78;4831736;29;20031;-82
2023/12/25 04:36:53;;;;;;;0.10;0.10;;;;;;;11.25;100.00;99576.88;4830899;29;20466;-82
2023/12/25 04:39:19;;;;;;;0.00;0.00;;;;;;;11.42;100.00;99602.97;4836199;29;20091;-83
2023/12/25 04:41:44;;;;;;;0.00;0.00;;;;;;;11.34;100.00;99586.06;4821341;29;20436;-82
2023/12/25 04:44:12;;;;;;;0.00;0.00;;;;;;;11.27;100.00;99557.41;4825161;29;20042;-83
2023/12/25 04:46:40;;;;;;;0.00;0.00;;;;;;;11.38;100.00;99560.88;4820888;29;20030;-81
2023/12/25 04:49:23;;;;;;;;;;;;;;;;;;;;;
2023/12/25 04:51:49;;;;;;;0.00;0.00;;;;;;;11.39;100.00;99567.97;4825506;29;20018;-82
2023/12/25 04:54:17;;;;;;;0.00;0.00;;;;;;;11.52;100.00;99589.16;4832845;29;20027;-82
2023/12/25 04:56:53;;;;;;;0.00;0.00;;;;;;;11.57;100.00;99588.28;4820349;29;20058;-82
2023/12/25 04:59:20;;;;;;;0.00;0.00;;;;;;;11.46;100.00;99571.16;4825696;29;20041;-80
2023/12/25 05:02:00;;;;;;;0.00;0.00;;;;;;;11.58;100.00;99579.78;4832894;29;20034;-79
2023/12/25 05:04:37;;;;;;;0.00;0.00;;;;;;;11.48;100.00;99552.53;4821657;29;20087;-81
2023/12/25 05:07:05;;;;;;;0.00;0.00;;;;;;;11.74;100.00;99604.22;4832819;29;20393;-82
2023/12/25 05:13:00;;;;;;;0.00;0.00;;;;;;;11.83;100.00;99630.66;4825027;29;20109;-84
2023/12/25 05:15:25;;;;;;;0.00;0.00;;;;;;;11.57;100.00;99583.63;4818773;29;20138;-83
2023/12/25 05:18:00;;;;;;;0.00;0.00;;;;;;;11.85;100.00;99622.16;4835668;29;20096;-81
2023/12/25 05:20:25;;;;;;;0.00;0.00;;;;;;;11.65;100.00;99584.88;4823931;29;20447;-81
2023/12/25 05:23:01;;;;;;;0.00;0.00;;;;;;;11.51;100.00;99557.41;4805268;29;20038;-81
2023/12/25 05:25:27;;;;;;;0.00;0.00;;;;;;;11.80;100.00;99597.59;4841580;29;20031;-82
2023/12/25 05:27:53;;;;;;;0.00;0.00;;;;;;;11.79;100.00;99601.41;4833282;29;20405;-82
2023/12/25 05:30:23;;;;;;;0.00;0.00;;;;;;;11.55;100.00;99560.38;4832985;29;20470;-81
2023/12/25 05:32:49;;;;;;;0.00;0.00;;;;;;;11.57;100.00;99556.25;4824587;29;20848;-81
2023/12/25 05:35:15;;;;;;;0.00;0.00;;;;;;;11.89;100.00;99609.50;4833704;29;20038;-81
2023/12/25 05:37:59;;;;;;;;;;;;;;;;;;;;;
2023/12/25 05:40:27;;;;;;;0.00;0.00;;;;;;;11.71;100.00;99605.63;4804404;29;20018;-80
2023/12/25 05:42:56;;;;;;;0.00;0.00;;;;;;;11.45;100.00;99610.63;4824513;29;20026;-78
2023/12/25 05:45:23;;;;;;;0.00;0.00;;;;;;;11.48;100.00;99623.72;4821926;29;20022;-78
2023/12/25 05:48:08;;;;;;;;;;;;;;;;;;;;;
2023/12/25 05:50:36;;;;;;;0.00;0.00;;;;;;;11.16;100.00;99578.63;4812154;29;20026;-79
2023/12/25 05:53:02;;;;;;;0.00;0.00;;;;;;;11.16;100.00;99592.31;4822792;29;20043;-79
2023/12/25 05:55:29;;;;;;;0.00;0.00;;;;;;;11.25;100.00;99617.94;4788520;29;20026;-80
2023/12/25 05:58:09;;;;;;;0.00;0.00;;;;;;;11.32;100.00;99632.09;4818708;29;20045;-80
2023/12/25 06:00:39;;;;;;;0.00;0.00;;;;;;;11.04;100.00;99589.97;4819019;29;20054;-80
2023/12/25 06:03:07;;;;;;;0.00;0.00;;;;;;;11.13;100.00;99601.91;4830090;29;20061;-79
2023/12/25 06:05:46;;;;;;;0.00;0.00;;;;;;;11.18;100.00;99606.50;4828071;29;20035;-80
2023/12/25 06:11:39;;;;;;;0.00;0.00;;;;;;;11.00;100.00;99576.03;4814812;29;20465;-80
2023/12/25 06:14:07;;;;;;;0.00;0.00;;;;;;;11.17;100.00;99602.16;4819248;29;20031;-80
2023/12/25 06:16:42;;;;;;;0.00;0.00;;;;;;;11.20;100.00;99609.78;4807550;29;20112;-81
2023/12/25 06:19:10;;;;;;;0.00;0.00;;;;;;;10.99;100.00;99574.44;4814156;29;20046;-78
2023/12/25 06:21:36;;;;;;;0.00;0.00;;;;;;;11.35;100.00;99630.69;4826847;29;20141;-77
2023/12/25 06:24:01;;;;;;;0.00;0.00;;;;;;;11.28;100.00;99619.28;4784415;29;20121;-78
2023/12/25 06:26:27;;;;;;;0.00;0.00;;;;;;;11.23;100.00;99606.47;4805023;29;20038;-77
2023/12/25 06:28:52;;;;;;;0.00;0.00;;;;;;;11.38;100.00;99632.03;4794834;29;20026;-78
2023/12/25 06:31:20;;;;;;;0.00;0.00;;;;;;;11.37;100.00;99625.72;4822258;29;20347;-78
2023/12/25 06:33:45;;;;;;;0.00;0.00;;;;;;;11.37;100.00;99644.91;4832599;29;20090;-78
2023/12/25 06:36:10;;;;;;;0.00;0.00;;;;;;;11.50;100.00;99649.66;4823627;29;20034;-78
2023/12/25 06:38:36;;;;;;;0.00;0.00;;;;;;;11.39;100.00;99639.13;4816651;29;20035;-79
2023/12/25 06:41:04;;;;;;;0.00;0.00;;;;;;;11.37;100.00;99622.19;4815543;29;20066;-78
2023/12/25 06:43:29;;;;;;;0.00;0.00;;;;;;;11.47;100.00;99650.25;4811008;29;20485;-78
2023/12/25 06:45:57;;;;;;;0.00;0.00;;;;;;;11.48;100.00;99656.56;4815335;29;20041;-77
2023/12/25 06:48:22;;;;;;;0.00;0.00;;;;;;;11.41;100.00;99631.47;4823945;29;20046;-79
2023/12/25 06:50:48;;;;;;;0.00;0.00;;;;;;;11.40;100.00;99616.13;4802508;29;20065;-78
2023/12/25 06:53:14;;;;;;;0.00;0.00;;;;;;;11.41;100.00;99623.25;4793222;29;20452;-78
2023/12/25 06:56:12;;;;;;;;;;;;;;;;;;;;;
2023/12/25 06:59:23;;;;;;;0.00;0.00;;;;;;;11.61;100.00;99642.16;4835471;29;20038;-80
2023/12/25 07:01:49;;;;;;;0.00;0.00;;;;;;;11.59;100.00;99629.88;4826744;29;20052;-77
2023/12/25 07:04:14;;;;;;;0.00;0.00;;;;;;;11.46;100.00;99593.06;4826135;29;20030;-78
2023/12/25 07:06:40;;;;;;;0.00;0.00;;;;;;;11.46;100.00;99609.47;4810932;29;20042;-79
2023/12/25 07:09:05;;;;;;;0.00;0.00;;;;;;;11.66;100.00;99631.13;4834303;29;20421;-81
2023/12/25 07:12:02;;;;;;;;;;;;;;;;;;;;;
2023/12/25 07:14:37;;;;;;;0.00;0.00;;;;;;;11.39;100.00;99598.06;4828219;29;20050;-78
2023/12/25 07:17:06;;;;;;;0.00;0.00;;;;;;;11.73;100.00;99651.91;4817066;29;20056;-80
2023/12/25 07:19:31;;;;;;;0.00;0.00;;;;;;;11.58;100.00;99614.53;4825475;29;20042;-77
2023/12/25 07:21:57;;;;;;;0.00;0.00;;;;;;;11.58;100.00;99618.13;4811322;29;20058;-77
2023/12/25 07:24:23;;;;;;;0.00;0.00;;;;;;;11.69;100.00;99646.97;4814064;29;20035;-79
2023/12/25 07:26:59;;;;;;;0.00;0.00;;;;;;;11.47;100.00;99628.34;4831274;29;20133;-79
2023/12/25 07:29:25;;;;;;;0.00;0.00;;;;;;;11.33;100.00;99606.34;4837024;29;20054;-81
2023/12/25 07:32:11;;;;;;;0.00;0.00;;;;;;;11.68;100.00;99659.06;4821256;29;20545;-83
2023/12/25 07:34:37;;;;;;;0.00;0.00;;;;;;;11.31;100.00;99624.97;4821460;29;20052;-81
2023/12/25 07:37:24;;;;;;;;;;;;;;;;;;;;;
2023/12/25 07:39:52;;;;;;;0.00;0.00;;;;;;;11.64;100.00;99679.13;4835137;29;20099;-78
2023/12/25 07:42:26;;;;;;;0.00;0.00;;;;;;;11.48;100.00;99656.56;4834165;29;20030;-80
2023/12/25 07:44:52;;;;;;;;;;;;;;;11.64;100.00;99688.13;4831970;29;20076;-77
2023/12/25 07:47:47;;;;;;;0.00;0.00;;;;;;;11.35;100.00;99647.91;4836796;29;19916;-79
2023/12/25 07:50:20;;;;;;;0.00;0.00;;;;;;;11.39;100.00;99653.66;4821149;29;20038;-79
2023/12/25 07:52:53;;;;;;;0.00;0.00;;;;;;;11.43;100.00;99668.38;4808098;29;20091;-78
2023/12/25 07:55:32;;;;;;;;;;;;;;;;;;;;;
2023/12/25 07:58:14;;;;;;;;;;;;;;;;;;;;;
2023/12/25 08:00:56;;;;;;;;;;;;;;;;;;;;;
2023/12/25 08:07:11;;;;;;;0.00;0.00;;;;;;;11.16;100.00;99622.41;4785197;29;20104;-83
2023/12/25 08:09:44;;;;;;;0.00;0.00;;;;;;;11.34;100.00;99631.78;4794033;29;20043;-78
2023/12/25 08:12:58;;;;;;;0.00;0.00;;;;;;;11.35;100.00;99647.91;4788164;29;20055;-79
2023/12/25 08:15:53;;;;;;;0.00;0.00;;;;;;;11.28;100.00;99641.97;4777891;29;20704;-80
2023/12/25 08:19:10;;;;;;;0.00;0.00;;;;;;;11.42;100.00;99676.88;4778387;29;20082;-79
2023/12/25 08:25:17;;;;;;;0.00;0.00;;;;;;;11.22;100.00;99653.28;4790094;29;20599;-79
2023/12/25 08:28:05;;;;;;;0.08;0.08;;;;;;;11.24;100.00;99651.06;4824529;29;20035;-78
2023/12/25 08:31:17;;;;;;;;;;;;;;;;;;;;;
2023/12/25 08:33:46;;;;;;;0.00;0.00;;;;;;;11.41;100.00;99695.22;4813921;29;20034;-79
2023/12/25 08:36:30;;;;;;;;;;;;;;;;;;;;;
2023/12/25 08:39:01;;;;;;;;;;;;;;;11.55;100.00;99706.31;4820164;29;20026;-79
2023/12/25 08:41:42;;;;;;;;;;;;;;;;;;;;;
2023/12/25 08:44:43;;;;;;;0.00;0.00;;;;;;;11.23;100.00;99660.38;4820730;29;20042;-79
2023/12/25 08:47:22;;;;;;;0.00;0.00;;;;;;;11.46;100.00;99697.09;4820882;29;20038;-76
2023/12/25 08:49:52;;;;;;;0.00;0.00;;;;;;;11.37;100.00;99676.94;4828652;29;20029;-78
2023/12/25 08:52:28;;;;;;;;;;;;;;;;;;;;;
2023/12/25 08:56:19;;;;;;;;;;;;;;;;;;;;;
2023/12/25 08:58:30;;;;;;;0.00;0.00;;;;;;;11.42;100.00;99699.59;4819075;29;20042;-81
2023/12/25 09:00:55;;;;;;;0.00;0.00;;;;;;;11.45;100.00;99722.84;4824929;29;20031;-81
2023/12/25 09:04:23;;;;;;;;;;;;;;;;;;;;;
2023/12/25 09:07:35;;;;;;;0.00;0.00;;;;;;;11.17;100.00;99711.63;4823036;29;20424;-83
2023/12/25 09:10:12;;;;;;;;;;;;;;;;;;;;;
2023/12/25 09:12:38;;;;;;;0.00;0.00;;;;;;;10.86;100.00;99684.50;4818187;29;20034;-83
2023/12/25 09:15:32;;;;;;;0.00;0.00;;;;;;;10.97;100.00;99713.41;4837574;29;20059;-88
2023/12/25 09:18:10;;;;;;;0.00;0.00;;;;;;;10.97;100.00;99704.41;4812795;29;20072;-78
2023/12/25 09:20:45;;;;;;;0.00;0.00;;;;;;;11.06;100.00;99723.75;4829243;29;20062;-79
2023/12/25 09:23:40;;;;;;;;;;;;;;;;;;;;;
2023/12/25 09:26:40;;;;;;;0.00;0.00;;;;;;;11.27;100.00;99759.94;4817652;29;20034;-80
2023/12/25 09:29:11;;;;;;;0.00;0.00;;;;;;;11.09;100.00;99729.44;4835638;29;20115;-79
2023/12/25 09:31:39;;;;;;;0.00;0.00;;;;;;;11.18;100.00;99725.00;4826868;29;20604;-82
2023/12/25 09:34:04;;;;;;;0.00;0.00;;;;;;;11.31;100.00;99711.75;4838820;29;20046;-82
2023/12/25 09:36:55;;;;;;;0.00;0.00;;;;;;;11.32;100.00;99696.97;4829801;29;20027;-83
2023/12/25 09:39:20;;;;;;;0.00;0.00;;;;;;;11.44;100.00;99713.00;4825519;29;20061;-81
2023/12/25 09:41:50;;;;;;;0.00;0.00;;;;;;;11.41;100.00;99721.78;4816237;29;20138;-80
2023/12/25 09:44:21;;;;;;;0.00;0.00;;;;;;;11.27;100.00;99711.53;4833744;29;20485;-79
2023/12/25 09:46:47;;;;;;;0.00;0.00;;;;;;;11.32;100.00;99716.13;4827265;29;20133;-78
2023/12/25 09:49:17;;;;;;;0.00;0.00;;;;;;;11.18;100.00;99691.34;4804147;29;20113;-81
2023/12/25 09:51:44;;;;;;;0.00;0.00;;;;;;;11.25;100.00;99721.94;4830264;29;20034;-78
2023/12/25 09:54:10;;;;;;;0.00;0.00;;;;;;;11.09;100.00;99687.59;4829035;29;20550;-79
2023/12/25 09:56:37;;;;;;;0.00;0.00;;;;;;;11.25;100.00;99719.19;4831042;29;20087;-77
2023/12/25 09:59:07;;;;;;;0.00;0.00;;;;;;;11.39;100.00;99740.41;4816208;29;20037;-77
2023/12/25 10:01:59;;;;;;;0.00;0.00;;;;;;;11.30;100.00;99716.41;4804254;29;20058;-77
2023/12/25 10:04:27;;;;;;;0.00;0.00;;;;;;;11.16;100.00;99696.28;4816147;29;20091;-76
2023/12/25 10:07:03;;;;;;;0.00;0.00;;;;;;;11.52;100.00;99745.22;4821177;29;20038;-76
2023/12/25 10:09:34;;;;;;;0.00;0.00;;;;;;;11.61;100.00;99748.97;4823403;29;20118;-76
2023/12/25 10:12:08;;;;;;;0.00;0.00;;;;;;;11.56;100.00;99724.38;4823586;29;20061;-78
2023/12/25 10:14:33;;;;;;;0.00;0.00;;;;;;;11.88;100.00;99759.38;4825356;29;21951;-79
2023/12/25 10:17:04;;;;;;;0.00;0.00;;;;;;;11.81;100.00;99727.94;4818892;29;20045;-79
2023/12/25 10:19:55;;;;;;;0.00;0.00;;;;;;;11.95;100.00;99742.59;4826127;29;20461;-80
2023/12/25 10:22:47;;;;;;;0.00;0.00;;;;;;;12.17;100.00;99760.44;4817101;29;20054;-79
2023/12/25 10:25:16;;;;;;;0.00;0.00;;;;;;;12.31;100.00;99772.31;4829090;29;20064;-79
2023/12/25 10:27:54;;;;;;;;;;;;;;;;;;;;;
2023/12/25 10:30:26;;;;;;;0.00;0.00;;;;;;;12.43;100.00;99752.69;4822873;29;20056;-82
2023/12/25 10:33:10;;;;;;;0.00;0.00;;;;;;;12.56;100.00;99768.41;4808945;29;20062;-80
2023/12/25 10:36:29;;;;;;;;;;;;;;;;;;;;;
2023/12/25 10:39:33;;;;;;;0.00;0.00;;;;;;;12.87;100.00;99767.97;4807082;29;20132;-82
2023/12/25 10:45:21;;;;;;;0.00;0.00;;;;;;;12.77;100.00;99759.09;4825594;29;20493;-81
2023/12/25 10:47:53;;;;;;;0.00;0.00;;;;;;;12.57;100.00;99731.66;4816958;29;20100;-80
2023/12/25 10:50:58;;;;;;;0.00;0.00;;;;;;;12.66;100.00;99745.53;4820313;29;20033;-82
2023/12/25 10:53:42;;;;;;;;;;;;;;;;;;;;;
2023/12/25 10:56:11;;;;;;;;;;;;;;;12.71;100.00;99764.63;4810711;29;20027;-79
2023/12/25 10:59:01;;;;;;;0.00;0.00;;;;;;;12.58;100.00;99754.41;4824223;29;19940;-79
2023/12/25 11:01:31;;;;;;;0.00;0.00;;;;;;;12.28;100.00;99704.38;4826083;29;20043;-79
2023/12/25 11:04:01;;;;;;;0.00;0.00;;;;;;;12.48;100.00;99727.94;4814648;29;20098;-79
2023/12/25 11:06:44;;;;;;;0.00;0.00;;;;;;;12.35;100.00;99702.09;4824287;29;20019;-81
2023/12/25 11:09:25;;;;;;;;;;;;;;;;;;;;;
2023/12/25 11:12:10;;;;;;;0.00;0.00;;;;;;;12.44;100.00;99726.91;4808862;29;20381;-77
2023/12/25 11:14:43;;;;;;;0.00;0.00;;;;;;;12.38;100.00;99715.22;4819922;29;20034;-78
2023/12/25 11:17:11;;;;;;;0.00;0.00;;;;;;;12.32;100.00;99708.13;4831853;29;20126;-79
2023/12/25 11:19:50;;;;;;;;;;;;;;;;;;;;;
2023/12/25 11:22:38;;;;;;;;;;;;;;;;;;;;;
2023/12/25 11:25:15;;;;;;;0.00;0.00;;;;;;;12.39;100.00;99686.66;4823001;29;20040;-79
2023/12/25 11:27:51;;;;;;;0.00;0.00;;;;;;;12.70;100.00;99708.16;4824135;29;20432;-78
2023/12/25 11:30:19;;;;;;;0.00;0.00;;;;;;;12.73;100.00;99691.09;4823094;29;20037;-78
2023/12/25 11:32:48;;;;;;;0.00;0.00;;;;;;;13.04;100.00;99715.31;4816607;29;20071;-79
2023/12/25 11:35:33;;;;;;;;;;;;;;;;;;;;;
2023/12/25 11:38:21;;;;;;;0.00;0.00;;;;;;;13.23;100.00;99703.47;4818486;29;20036;-79
2023/12/25 11:40:52;;;;;;;0.00;0.00;;;;;;;13.29;100.00;99696.78;4829979;29;20038;-80
2023/12/25 11:43:18;;;;;;;0.00;0.00;;;;;;;13.65;100.00;99725.53;4825935;29;20434;-80
2023/12/25 11:45:45;;;;;;;0.00;0.00;;;;;;;13.76;100.00;99710.50;4820179;29;20371;-78
2023/12/25 11:48:14;;;;;;;0.00;0.00;;;;;;;13.67;100.00;99688.41;4821325;29;20049;-82
2023/12/25 11:51:55;;;;;;;;;;;;;;;;;;;;;
2023/12/25 11:58:49;;;;;;;0.00;0.00;;;;;;;13.70;100.00;99712.53;4714741;30;20433;-80
2023/12/25 12:01:22;;;;;;;0.00;0.00;;;;;;;13.27;100.00;99666.03;4720913;29;20138;-79
2023/12/25 12:07:14;;;;;;;0.10;0.10;;;;;;;13.22;100.00;99663.41;4809664;29;20192;-80
2023/12/25 12:27:39;;;;;;;;;;;;;;;;;;;;;
2023/12/25 12:33:38;;;;;;;0.00;0.00;;;;;;;12.25;100.00;99641.94;4688020;30;20090;-81
2023/12/25 12:36:14;;;;;;;0.00;0.00;;;;;;;12.14;100.00;99645.91;4691701;30;20026;-81
2023/12/25 12:38:45;;;;;;;0.00;0.00;;;;;;;12.24;100.00;99664.97;4682601;30;20042;-78
2023/12/25 12:41:12;;;;;;;0.00;0.00;;;;;;;11.97;100.00;99646.41;4711727;30;20131;-79
2023/12/25 12:43:46;;;;;;;0.00;0.00;;;;;;;11.86;100.00;99648.44;4760622;29;20072;-81
2023/12/25 12:46:27;;;;;;;0.00;0.00;;;;;;;11.80;100.00;99652.38;4778192;29;20477;-81
2023/12/25 12:56:51;;;;;;;0.00;0.00;;;;;;;11.76;100.00;99652.13;4747776;29;20482;-79
2023/12/25 12:59:16;;;;;;;0.00;0.00;;;;;;;11.59;100.00;99636.16;4771212;29;20042;-80
2023/12/25 13:01:44;;;;;;;0.00;0.00;;;;;;;11.78;100.00;99671.81;4759345;29;20047;-79
2023/12/25 13:04:56;;;;;;;0.00;0.00;;;;;;;11.43;100.00;99604.59;4771475;29;20035;-80
2023/12/25 13:07:54;;;;;;;0.00;0.00;;;;;;;11.52;100.00;99613.78;4768671;29;20181;-81
2023/12/25 13:10:33;;;;;;;0.00;0.00;;;;;;;11.83;100.00;99630.66;4811651;29;20073;-84
2023/12/25 13:13:01;;;;;;;0.00;0.00;;;;;;;11.94;100.00;99631.38;4831502;29;20039;-80
2023/12/25 13:15:26;;;;;;;0.00;0.00;;;;;;;11.85;100.00;99605.72;4798233;29;20977;-79
2023/12/25 13:18:00;;;;;;;0.00;0.00;;;;;;;11.94;100.00;99611.38;4824710;29;20494;-83
2023/12/25 13:20:26;;;;;;;0.00;0.00;;;;;;;12.13;100.00;99633.31;4814189;29;20030;-81
2023/12/25 13:29:12;;;;;;;0.00;0.00;;;;;;;12.09;100.00;99633.09;4808914;29;20042;-81
2023/12/25 13:35:23;;;;;;;;;;;;;;;;;;;;;
2023/12/25 13:38:17;;;;;;;0.00;0.00;;;;;;;11.92;100.00;99584.25;4779399;29;20494;-82
2023/12/25 13:40:47;;;;;;;0.00;0.00;;;;;;;11.92;100.00;99573.28;4769847;29;20044;-79
2023/12/25 13:43:13;;;;;;;0.00;0.00;;;;;;;12.24;100.00;99601.91;4755054;30;20043;-78
2023/12/25 13:45:39;;;;;;;0.00;0.00;;;;;;;12.16;100.00;99561.47;4775909;29;20481;-78
2023/12/25 13:48:07;;;;;;;0.00;0.00;;;;;;;12.08;100.00;99551.19;4811250;29;20045;-78
2023/12/25 13:54:03;;;;;;;0.00;0.00;;;;;;;11.98;100.00;99539.25;4753790;30;20179;-80
2023/12/25 14:15:13;;;;;;;0.00;0.00;;;;;;;11.71;100.00;99528.94;5182655;23;20065;-79
2023/12/25 14:17:43;;;;;;;0.00;0.00;;;;;;;11.61;100.00;99527.16;4835446;29;20480;-79